createdAt,value
2018-03-25T00:00:17.254Z,7.53
2018-03-25T00:01:17.268Z,7.5
2018-03-25T00:02:17.291Z,7.43
2018-03-25T00:03:17.300Z,7.4
2018-03-25T00:04:17.310Z,7.45
2018-03-25T00:05:17.073Z,7.36
2018-03-25T00:06:17.091Z,7.42
2018-03-25T00:07:17.107Z,7.42
2018-03-25T00:08:16.863Z,7.33
2018-03-25T00:09:17.435Z,7.42
2018-03-25T00:10:17.154Z,7.42
2018-03-25T00:11:16.911Z,7.36
2018-03-25T00:12:17.437Z,7.42
2018-03-25T00:13:17.457Z,7.35
2018-03-25T00:14:17.213Z,7.43
2018-03-25T00:15:17.487Z,7.38
2018-03-25T00:16:17.244Z,7.42
2018-03-25T00:17:17.514Z,7.4
2018-03-25T00:18:17.539Z,7.29
2018-03-25T00:19:17.549Z,7.39
2018-03-25T00:20:17.570Z,7.35
2018-03-25T00:21:17.583Z,7.29
2018-03-25T00:22:17.599Z,7.31
2018-03-25T00:23:17.355Z,7.29
2018-03-25T00:24:17.681Z,7.2
2018-03-25T00:25:17.387Z,7.15
2018-03-25T00:26:17.671Z,7.1
2018-03-25T00:27:17.418Z,7.13
2018-03-25T00:28:17.687Z,7.07
2018-03-25T00:29:17.447Z,7.13
2018-03-25T00:30:17.729Z,7.24
2018-03-25T00:31:17.731Z,7.18
2018-03-25T00:32:17.521Z,7.05
2018-03-25T00:33:17.572Z,7.06
2018-03-25T00:34:17.527Z,7.06
2018-03-25T00:35:17.286Z,7.05
2018-03-25T00:36:17.561Z,7.02
2018-03-25T00:37:17.566Z,7.07
2018-03-25T00:38:17.826Z,6.99
2018-03-25T00:39:17.595Z,7.07
2018-03-25T00:40:17.879Z,7.07
2018-03-25T00:41:17.372Z,7.17
2018-03-25T00:42:17.656Z,7.13
2018-03-25T00:43:17.975Z,7.15
2018-03-25T00:44:17.686Z,7.07
2018-03-25T00:45:17.955Z,7.11
2018-03-25T00:46:17.972Z,6.95
2018-03-25T00:47:17.988Z,6.95
2018-03-25T00:48:18.005Z,7.02
2018-03-25T00:49:17.514Z,6.97
2018-03-25T00:50:18.034Z,7.03
2018-03-25T00:51:18.051Z,6.99
2018-03-25T00:52:17.557Z,6.85
2018-03-25T00:53:17.820Z,6.89
2018-03-25T00:54:17.590Z,6.81
2018-03-25T00:55:17.858Z,6.79
2018-03-25T00:56:18.167Z,6.88
2018-03-25T00:57:17.907Z,6.92
2018-03-25T00:58:18.203Z,6.87
2018-03-25T00:59:18.174Z,6.87
2018-03-25T01:00:18.188Z,6.97
2018-03-25T01:01:17.960Z,6.87
2018-03-25T01:02:17.962Z,6.88
2018-03-25T01:03:17.986Z,6.81
2018-03-25T01:04:18.004Z,6.75
2018-03-25T01:05:17.999Z,6.79
2018-03-25T01:06:18.006Z,6.74
2018-03-25T01:07:18.024Z,6.77
2018-03-25T01:08:18.295Z,6.67
2018-03-25T01:09:18.055Z,6.66
2018-03-25T01:10:18.086Z,6.67
2018-03-25T01:11:18.354Z,6.64
2018-03-25T01:12:18.374Z,6.67
2018-03-25T01:13:18.185Z,6.66
2018-03-25T01:14:18.406Z,6.48
2018-03-25T01:15:18.168Z,6.56
2018-03-25T01:16:18.203Z,6.56
2018-03-25T01:17:18.194Z,6.66
2018-03-25T01:18:18.212Z,6.52
2018-03-25T01:19:18.480Z,6.49
2018-03-25T01:20:18.248Z,6.45
2018-03-25T01:21:18.514Z,6.48
2018-03-25T01:22:18.528Z,6.35
2018-03-25T01:23:18.624Z,6.39
2018-03-25T01:24:18.061Z,6.44
2018-03-25T01:25:18.572Z,6.44
2018-03-25T01:26:18.331Z,6.42
2018-03-25T01:27:18.600Z,6.42
2018-03-25T01:28:18.668Z,6.41
2018-03-25T01:29:18.376Z,6.54
2018-03-25T01:30:18.643Z,6.56
2018-03-25T01:31:18.405Z,6.62
2018-03-25T01:32:18.173Z,6.54
2018-03-25T01:33:18.704Z,6.64
2018-03-25T01:34:18.450Z,6.52
2018-03-25T01:35:18.722Z,6.46
2018-03-25T01:36:18.739Z,6.54
2018-03-25T01:37:18.241Z,6.51
2018-03-25T01:38:18.510Z,6.59
2018-03-25T01:39:18.795Z,6.62
2018-03-25T01:40:18.799Z,6.49
2018-03-25T01:41:18.816Z,6.52
2018-03-25T01:42:18.315Z,6.44
2018-03-25T01:43:18.381Z,6.38
2018-03-25T01:44:18.862Z,6.38
2018-03-25T01:45:18.361Z,6.36
2018-03-25T01:46:18.887Z,6.31
2018-03-25T01:47:18.646Z,6.35
2018-03-25T01:48:18.660Z,6.33
2018-03-25T01:49:18.997Z,6.35
2018-03-25T01:50:18.694Z,6.49
2018-03-25T01:51:18.959Z,6.42
2018-03-25T01:52:18.721Z,6.46
2018-03-25T01:53:18.744Z,6.51
2018-03-25T01:54:19.006Z,6.36
2018-03-25T01:55:18.764Z,6.35
2018-03-25T01:56:18.780Z,6.46
2018-03-25T01:57:19.133Z,6.48
2018-03-25T01:58:18.864Z,6.46
2018-03-25T01:59:19.085Z,6.49
2018-03-25T02:00:19.107Z,6.49
2018-03-25T02:01:19.116Z,6.51
2018-03-25T02:02:19.127Z,6.51
2018-03-25T02:03:18.632Z,6.49
2018-03-25T02:04:19.154Z,6.39
2018-03-25T02:05:18.919Z,6.41
2018-03-25T02:06:18.936Z,6.31
2018-03-25T02:07:18.969Z,6.31
2018-03-25T02:08:19.222Z,6.3
2018-03-25T02:09:18.982Z,6.33
2018-03-25T02:10:18.744Z,6.04
2018-03-25T02:11:19.007Z,6.17
2018-03-25T02:12:19.018Z,6.11
2018-03-25T02:13:19.087Z,6.31
2018-03-25T02:14:19.308Z,6.24
2018-03-25T02:15:19.322Z,6.27
2018-03-25T02:16:19.080Z,6.27
2018-03-25T02:17:19.352Z,6.39
2018-03-25T02:18:19.369Z,6.27
2018-03-25T02:19:19.122Z,6.3
2018-03-25T02:20:19.138Z,6.27
2018-03-25T02:21:18.900Z,6.17
2018-03-25T02:22:19.423Z,6.2
2018-03-25T02:23:19.447Z,6.17
2018-03-25T02:24:19.668Z,6.28
2018-03-25T02:25:19.470Z,6.22
2018-03-25T02:26:19.258Z,6.17
2018-03-25T02:27:19.498Z,6.2
2018-03-25T02:28:19.312Z,6.26
2018-03-25T02:29:19.529Z,6.16
2018-03-25T02:30:19.316Z,6.3
2018-03-25T02:31:19.318Z,6.28
2018-03-25T02:32:19.584Z,6.24
2018-03-25T02:33:19.597Z,6.27
2018-03-25T02:34:19.614Z,6.22
2018-03-25T02:35:19.624Z,6.19
2018-03-25T02:36:19.129Z,6.26
2018-03-25T02:37:19.406Z,6.28
2018-03-25T02:38:19.664Z,6.19
2018-03-25T02:39:19.680Z,6.2
2018-03-25T02:40:19.697Z,6.31
2018-03-25T02:41:19.458Z,6.2
2018-03-25T02:42:19.731Z,6.24
2018-03-25T02:43:19.534Z,6.31
2018-03-25T02:44:19.757Z,6.17
2018-03-25T02:45:19.786Z,6.07
2018-03-25T02:46:19.547Z,6.19
2018-03-25T02:47:19.802Z,6.16
2018-03-25T02:48:19.555Z,6.08
2018-03-25T02:49:19.827Z,6.19
2018-03-25T02:50:19.843Z,6.22
2018-03-25T02:51:19.877Z,6.16
2018-03-25T02:52:19.882Z,6.16
2018-03-25T02:53:19.891Z,6.16
2018-03-25T02:54:19.925Z,6.09
2018-03-25T02:55:19.981Z,6.19
2018-03-25T02:56:19.679Z,6.05
2018-03-25T02:57:19.702Z,5.93
2018-03-25T02:58:20.031Z,5.94
2018-03-25T02:59:19.984Z,5.98
2018-03-25T03:00:19.738Z,5.99
2018-03-25T03:01:20.011Z,6.02
2018-03-25T03:02:20.030Z,5.94
2018-03-25T03:03:20.053Z,5.97
2018-03-25T03:04:20.047Z,6.01
2018-03-25T03:05:19.815Z,5.98
2018-03-25T03:06:20.077Z,5.87
2018-03-25T03:07:20.092Z,5.97
2018-03-25T03:08:20.101Z,5.99
2018-03-25T03:09:19.867Z,5.97
2018-03-25T03:10:20.135Z,5.98
2018-03-25T03:11:20.150Z,5.99
2018-03-25T03:12:20.156Z,5.93
2018-03-25T03:13:19.723Z,5.9
2018-03-25T03:14:19.705Z,5.86
2018-03-25T03:15:20.216Z,5.94
2018-03-25T03:16:20.226Z,5.89
2018-03-25T03:17:20.235Z,5.99
2018-03-25T03:18:20.253Z,5.89
2018-03-25T03:19:20.013Z,5.8
2018-03-25T03:20:20.284Z,5.9
2018-03-25T03:21:20.050Z,5.83
2018-03-25T03:22:20.319Z,5.84
2018-03-25T03:23:20.347Z,5.94
2018-03-25T03:24:20.366Z,5.93
2018-03-25T03:25:20.360Z,6.08
2018-03-25T03:26:20.376Z,5.99
2018-03-25T03:27:20.148Z,5.91
2018-03-25T03:28:20.455Z,5.91
2018-03-25T03:29:20.162Z,6.01
2018-03-25T03:30:19.923Z,5.97
2018-03-25T03:31:20.457Z,5.99
2018-03-25T03:32:20.209Z,5.99
2018-03-25T03:33:20.225Z,5.94
2018-03-25T03:34:20.489Z,5.98
2018-03-25T03:35:20.507Z,6.01
2018-03-25T03:36:20.266Z,6.02
2018-03-25T03:37:20.281Z,6.05
2018-03-25T03:38:20.299Z,6.05
2018-03-25T03:39:20.575Z,6.05
2018-03-25T03:40:20.580Z,6.09
2018-03-25T03:41:20.596Z,6.05
2018-03-25T03:42:20.610Z,6.05
2018-03-25T03:43:20.683Z,5.94
2018-03-25T03:44:20.640Z,5.84
2018-03-25T03:45:20.398Z,5.73
2018-03-25T03:46:20.160Z,5.64
2018-03-25T03:47:20.175Z,5.68
2018-03-25T03:48:20.694Z,5.57
2018-03-25T03:49:20.456Z,5.61
2018-03-25T03:50:20.724Z,5.64
2018-03-25T03:51:20.743Z,5.68
2018-03-25T03:52:20.751Z,5.68
2018-03-25T03:53:20.770Z,5.62
2018-03-25T03:54:20.533Z,5.68
2018-03-25T03:55:20.542Z,5.71
2018-03-25T03:56:20.566Z,5.71
2018-03-25T03:57:20.321Z,5.64
2018-03-25T03:58:20.896Z,5.64
2018-03-25T03:59:20.858Z,5.73
2018-03-25T04:00:20.622Z,5.66
2018-03-25T04:01:20.885Z,5.59
2018-03-25T04:02:20.912Z,5.53
2018-03-25T04:03:20.662Z,5.59
2018-03-25T04:04:20.682Z,5.53
2018-03-25T04:05:20.944Z,5.61
2018-03-25T04:06:20.452Z,5.57
2018-03-25T04:07:20.976Z,5.5
2018-03-25T04:08:20.480Z,5.51
2018-03-25T04:09:20.495Z,5.51
2018-03-25T04:10:20.768Z,5.48
2018-03-25T04:11:21.038Z,5.61
2018-03-25T04:12:21.059Z,5.5
2018-03-25T04:13:20.859Z,5.61
2018-03-25T04:14:20.844Z,5.64
2018-03-25T04:15:20.837Z,5.62
2018-03-25T04:16:20.852Z,5.71
2018-03-25T04:17:21.146Z,5.71
2018-03-25T04:18:20.880Z,5.68
2018-03-25T04:19:20.894Z,5.69
2018-03-25T04:20:21.169Z,5.65
2018-03-25T04:21:21.186Z,5.66
2018-03-25T04:22:21.192Z,5.75
2018-03-25T04:23:21.218Z,5.65
2018-03-25T04:24:21.227Z,5.66
2018-03-25T04:25:20.988Z,5.64
2018-03-25T04:26:21.260Z,5.51
2018-03-25T04:27:21.015Z,5.53
2018-03-25T04:28:21.337Z,5.5
2018-03-25T04:29:21.081Z,5.51
2018-03-25T04:30:21.312Z,5.44
2018-03-25T04:31:21.073Z,5.44
2018-03-25T04:32:21.335Z,5.44
2018-03-25T04:33:21.352Z,5.46
2018-03-25T04:34:21.365Z,5.46
2018-03-25T04:35:21.408Z,5.46
2018-03-25T04:36:21.402Z,5.61
2018-03-25T04:37:21.155Z,5.54
2018-03-25T04:38:20.969Z,5.48
2018-03-25T04:39:21.190Z,5.43
2018-03-25T04:40:21.199Z,5.57
2018-03-25T04:41:21.468Z,5.48
2018-03-25T04:42:21.490Z,5.59
2018-03-25T04:43:21.495Z,5.46
2018-03-25T04:44:21.517Z,5.44
2018-03-25T04:45:21.273Z,5.38
2018-03-25T04:46:21.539Z,5.33
2018-03-25T04:47:21.382Z,5.3
2018-03-25T04:48:21.574Z,5.28
2018-03-25T04:49:21.329Z,5.3
2018-03-25T04:50:21.349Z,5.28
2018-03-25T04:51:21.616Z,5.39
2018-03-25T04:52:21.511Z,5.44
2018-03-25T04:53:21.693Z,5.35
2018-03-25T04:54:21.658Z,5.33
2018-03-25T04:55:21.675Z,5.38
2018-03-25T04:56:21.681Z,5.39
2018-03-25T04:57:21.445Z,5.41
2018-03-25T04:58:21.459Z,5.51
2018-03-25T04:59:21.475Z,5.44
2018-03-25T05:00:21.743Z,5.44
2018-03-25T05:01:21.762Z,5.39
2018-03-25T05:02:21.769Z,5.3
2018-03-25T05:03:21.532Z,5.29
2018-03-25T05:04:21.545Z,5.35
2018-03-25T05:05:21.555Z,5.36
2018-03-25T05:06:21.830Z,5.35
2018-03-25T05:07:21.841Z,5.39
2018-03-25T05:08:21.607Z,5.38
2018-03-25T05:09:21.868Z,5.39
2018-03-25T05:10:21.628Z,5.39
2018-03-25T05:11:21.441Z,5.3
2018-03-25T05:12:21.680Z,5.41
2018-03-25T05:13:21.937Z,5.3
2018-03-25T05:14:21.944Z,5.32
2018-03-25T05:15:21.710Z,5.33
2018-03-25T05:16:21.972Z,5.41
2018-03-25T05:17:21.987Z,5.41
2018-03-25T05:18:22.000Z,5.3
2018-03-25T05:19:22.016Z,5.33
2018-03-25T05:20:22.028Z,5.39
2018-03-25T05:21:22.052Z,5.41
2018-03-25T05:22:21.798Z,5.35
2018-03-25T05:23:22.070Z,5.44
2018-03-25T05:24:21.853Z,5.39
2018-03-25T05:25:21.848Z,5.48
2018-03-25T05:26:21.909Z,5.41
2018-03-25T05:27:22.126Z,5.53
2018-03-25T05:28:22.152Z,5.56
2018-03-25T05:29:21.903Z,5.59
2018-03-25T05:30:22.175Z,5.57
2018-03-25T05:31:21.681Z,5.56
2018-03-25T05:32:22.200Z,5.44
2018-03-25T05:33:22.238Z,5.39
2018-03-25T05:34:22.238Z,5.43
2018-03-25T05:35:21.980Z,5.48
2018-03-25T05:36:22.256Z,5.48
2018-03-25T05:37:22.262Z,5.39
2018-03-25T05:38:22.276Z,5.38
2018-03-25T05:39:22.049Z,5.44
2018-03-25T05:40:22.050Z,5.44
2018-03-25T05:41:22.421Z,5.41
2018-03-25T05:42:22.093Z,5.36
2018-03-25T05:43:21.842Z,5.38
2018-03-25T05:44:22.366Z,5.38
2018-03-25T05:45:22.133Z,5.43
2018-03-25T05:46:22.140Z,5.39
2018-03-25T05:47:21.900Z,5.33
2018-03-25T05:48:22.170Z,5.3
2018-03-25T05:49:22.440Z,5.17
2018-03-25T05:50:22.470Z,5.18
2018-03-25T05:51:22.475Z,5.14
2018-03-25T05:52:22.236Z,5.1
2018-03-25T05:53:22.251Z,5.05
2018-03-25T05:54:22.262Z,5.08
2018-03-25T05:55:22.531Z,5.1
2018-03-25T05:56:22.340Z,5.15
2018-03-25T05:57:22.311Z,5.23
2018-03-25T05:58:22.325Z,5.26
2018-03-25T05:59:22.601Z,5.35
2018-03-25T06:00:22.606Z,5.32
2018-03-25T06:01:22.739Z,5.41
2018-03-25T06:02:22.657Z,5.41
2018-03-25T06:03:22.397Z,5.46
2018-03-25T06:04:22.385Z,5.44
2018-03-25T06:05:22.663Z,5.53
2018-03-25T06:06:22.668Z,5.51
2018-03-25T06:07:22.683Z,5.56
2018-03-25T06:08:22.455Z,5.53
2018-03-25T06:09:22.747Z,5.48
2018-03-25T06:10:22.746Z,5.46
2018-03-25T06:11:22.668Z,5.53
2018-03-25T06:12:22.772Z,5.47
2018-03-25T06:13:22.786Z,5.51
2018-03-25T06:14:22.545Z,5.62
2018-03-25T06:15:22.837Z,5.75
2018-03-25T06:16:22.327Z,5.71
2018-03-25T06:17:22.853Z,5.73
2018-03-25T06:18:22.608Z,5.82
2018-03-25T06:19:22.635Z,5.87
2018-03-25T06:20:22.890Z,5.97
2018-03-25T06:21:22.913Z,5.98
2018-03-25T06:22:22.916Z,6.02
2018-03-25T06:23:22.707Z,6.05
2018-03-25T06:24:22.989Z,6.01
2018-03-25T06:25:22.720Z,6.11
2018-03-25T06:26:23.134Z,6.08
2018-03-25T06:27:22.750Z,6.07
2018-03-25T06:28:22.504Z,6.26
2018-03-25T06:29:23.028Z,6.22
2018-03-25T06:30:23.051Z,6.17
2018-03-25T06:31:22.820Z,6.12
2018-03-25T06:32:22.566Z,6.04
2018-03-25T06:33:22.838Z,6.02
2018-03-25T06:34:22.846Z,5.99
2018-03-25T06:35:22.864Z,5.71
2018-03-25T06:36:22.624Z,5.79
2018-03-25T06:37:22.894Z,5.83
2018-03-25T06:38:22.908Z,5.8
2018-03-25T06:39:23.182Z,5.73
2018-03-25T06:40:22.933Z,5.79
2018-03-25T06:41:22.846Z,5.75
2018-03-25T06:42:23.280Z,5.59
2018-03-25T06:43:23.234Z,5.57
2018-03-25T06:44:22.995Z,5.69
2018-03-25T06:45:23.268Z,5.68
2018-03-25T06:46:23.023Z,5.62
2018-03-25T06:47:23.289Z,5.76
2018-03-25T06:48:23.305Z,5.9
2018-03-25T06:49:23.320Z,5.97
2018-03-25T06:50:23.329Z,6.05
2018-03-25T06:51:23.359Z,6.12
2018-03-25T06:52:23.370Z,6.12
2018-03-25T06:53:23.387Z,6.17
2018-03-25T06:54:23.388Z,6.09
2018-03-25T06:55:23.404Z,5.99
2018-03-25T06:56:23.216Z,6.12
2018-03-25T06:57:23.191Z,6.19
2018-03-25T06:58:23.474Z,6.05
2018-03-25T06:59:23.210Z,6.08
2018-03-25T07:00:23.489Z,5.98
2018-03-25T07:01:23.249Z,6.08
2018-03-25T07:02:23.504Z,6.26
2018-03-25T07:03:23.531Z,6.09
2018-03-25T07:04:23.542Z,6.3
2018-03-25T07:05:23.556Z,6.26
2018-03-25T07:06:23.520Z,6.36
2018-03-25T07:07:23.591Z,6.51
2018-03-25T07:08:23.608Z,6.56
2018-03-25T07:09:23.621Z,6.69
2018-03-25T07:10:23.376Z,6.64
2018-03-25T07:11:23.439Z,6.74
2018-03-25T07:12:23.419Z,6.75
2018-03-25T07:13:23.686Z,6.57
2018-03-25T07:14:23.710Z,6.57
2018-03-25T07:15:23.707Z,6.52
2018-03-25T07:16:23.258Z,6.66
2018-03-25T07:17:23.756Z,6.81
2018-03-25T07:18:23.754Z,6.78
2018-03-25T07:19:23.516Z,6.87
2018-03-25T07:20:23.777Z,7.11
2018-03-25T07:21:23.542Z,7.28
2018-03-25T07:22:23.819Z,7.28
2018-03-25T07:23:23.829Z,7.1
2018-03-25T07:24:23.588Z,7.1
2018-03-25T07:25:23.855Z,7.11
2018-03-25T07:26:23.668Z,7.11
2018-03-25T07:27:23.889Z,7.21
2018-03-25T07:28:23.901Z,7.21
2018-03-25T07:29:23.922Z,7.38
2018-03-25T07:30:23.936Z,7.33
2018-03-25T07:31:23.696Z,7.28
2018-03-25T07:32:23.971Z,7.32
2018-03-25T07:33:23.727Z,7.36
2018-03-25T07:34:23.740Z,7.4
2018-03-25T07:35:24.006Z,7.4
2018-03-25T07:36:24.024Z,7.45
2018-03-25T07:37:23.789Z,7.35
2018-03-25T07:38:24.054Z,7.29
2018-03-25T07:39:23.810Z,7.28
2018-03-25T07:40:23.840Z,7.4
2018-03-25T07:41:24.157Z,7.48
2018-03-25T07:42:24.119Z,7.8
2018-03-25T07:43:24.135Z,7.91
2018-03-25T07:44:24.157Z,8.12
2018-03-25T07:45:23.914Z,8.18
2018-03-25T07:46:23.675Z,8.3
2018-03-25T07:47:24.210Z,8.49
2018-03-25T07:48:23.960Z,8.55
2018-03-25T07:49:23.976Z,8.49
2018-03-25T07:50:24.253Z,8.67
2018-03-25T07:51:24.002Z,8.78
2018-03-25T07:52:24.025Z,8.85
2018-03-25T07:53:24.036Z,8.95
2018-03-25T07:54:24.052Z,9.02
2018-03-25T07:55:24.318Z,9.03
2018-03-25T07:56:24.400Z,9.22
2018-03-25T07:57:24.103Z,9.32
2018-03-25T07:58:24.113Z,9.46
2018-03-25T07:59:23.885Z,9.44
2018-03-25T08:00:24.409Z,9.5
2018-03-25T08:01:24.425Z,9.55
2018-03-25T08:02:24.452Z,9.55
2018-03-25T08:03:23.953Z,9.56
2018-03-25T08:04:24.242Z,9.58
2018-03-25T08:05:24.499Z,9.69
2018-03-25T08:06:24.255Z,9.72
2018-03-25T08:07:24.271Z,9.74
2018-03-25T08:08:24.549Z,9.86
2018-03-25T08:09:24.562Z,10.01
2018-03-25T08:10:24.578Z,10.07
2018-03-25T08:11:24.393Z,10.26
2018-03-25T08:12:24.358Z,10.31
2018-03-25T08:13:24.628Z,10.41
2018-03-25T08:14:24.650Z,10.54
2018-03-25T08:15:24.416Z,10.71
2018-03-25T08:16:24.430Z,10.84
2018-03-25T08:17:24.701Z,10.94
2018-03-25T08:18:24.472Z,10.94
2018-03-25T08:19:24.735Z,10.96
2018-03-25T08:20:24.499Z,10.87
2018-03-25T08:21:24.311Z,10.92
2018-03-25T08:22:24.536Z,10.99
2018-03-25T08:23:24.809Z,10.96
2018-03-25T08:24:24.830Z,10.96
2018-03-25T08:25:24.588Z,10.92
2018-03-25T08:26:24.961Z,11.05
2018-03-25T08:27:24.631Z,11
2018-03-25T08:28:24.899Z,11.02
2018-03-25T08:29:24.925Z,11.05
2018-03-25T08:30:24.681Z,11.08
2018-03-25T08:31:24.692Z,11.11
2018-03-25T08:32:24.707Z,11.25
2018-03-25T08:33:24.990Z,11.44
2018-03-25T08:34:25.006Z,11.29
2018-03-25T08:35:25.074Z,11.52
2018-03-25T08:36:25.043Z,11.47
2018-03-25T08:37:25.066Z,11.62
2018-03-25T08:38:25.076Z,11.62
2018-03-25T08:39:25.107Z,11.48
2018-03-25T08:40:24.962Z,11.48
2018-03-25T08:41:24.927Z,11.6
2018-03-25T08:42:25.159Z,11.69
2018-03-25T08:43:24.913Z,11.72
2018-03-25T08:44:24.936Z,11.7
2018-03-25T08:45:24.695Z,11.78
2018-03-25T08:46:25.224Z,11.84
2018-03-25T08:47:24.729Z,11.99
2018-03-25T08:48:24.751Z,11.87
2018-03-25T08:49:25.284Z,12.03
2018-03-25T08:50:25.042Z,12.07
2018-03-25T08:51:25.319Z,12.29
2018-03-25T08:52:25.082Z,12.42
2018-03-25T08:53:24.845Z,12.53
2018-03-25T08:54:24.862Z,12.55
2018-03-25T08:55:25.395Z,12.6
2018-03-25T08:56:25.205Z,12.62
2018-03-25T08:57:25.179Z,12.73
2018-03-25T08:58:25.469Z,12.76
2018-03-25T08:59:25.473Z,12.75
2018-03-25T09:00:25.487Z,12.91
2018-03-25T09:01:25.254Z,13.05
2018-03-25T09:02:25.541Z,13.05
2018-03-25T09:03:25.552Z,13.15
2018-03-25T09:04:25.566Z,13
2018-03-25T09:05:25.332Z,12.95
2018-03-25T09:06:25.613Z,12.91
2018-03-25T09:07:25.365Z,13
2018-03-25T09:08:25.645Z,13.01
2018-03-25T09:09:25.664Z,13
2018-03-25T09:10:25.688Z,12.91
2018-03-25T09:11:25.752Z,12.93
2018-03-25T09:12:25.739Z,13.05
2018-03-25T09:13:25.518Z,13.09
2018-03-25T09:14:25.544Z,13.04
2018-03-25T09:15:25.523Z,13.08
2018-03-25T09:16:25.549Z,13.09
2018-03-25T09:17:25.561Z,13.12
2018-03-25T09:18:25.840Z,13.12
2018-03-25T09:19:25.862Z,13.27
2018-03-25T09:20:25.626Z,13.31
2018-03-25T09:21:25.641Z,13.35
2018-03-25T09:22:25.666Z,13.47
2018-03-25T09:23:25.682Z,13.57
2018-03-25T09:24:25.698Z,13.71
2018-03-25T09:25:25.720Z,13.78
2018-03-25T09:26:25.745Z,13.87
2018-03-25T09:27:26.012Z,13.97
2018-03-25T09:28:25.787Z,14.1
2018-03-25T09:29:25.826Z,14.04
2018-03-25T09:30:26.081Z,14.05
2018-03-25T09:31:25.843Z,14.23
2018-03-25T09:32:26.125Z,14.29
2018-03-25T09:33:26.157Z,14.25
2018-03-25T09:34:25.900Z,14.3
2018-03-25T09:35:26.183Z,14.35
2018-03-25T09:36:26.201Z,14.43
2018-03-25T09:37:26.237Z,14.59
2018-03-25T09:38:25.996Z,14.77
2018-03-25T09:39:26.264Z,14.62
2018-03-25T09:40:26.289Z,14.82
2018-03-25T09:41:26.064Z,14.82
2018-03-25T09:42:26.326Z,15.14
2018-03-25T09:43:26.349Z,15.36
2018-03-25T09:44:26.125Z,15.43
2018-03-25T09:45:26.407Z,15.55
2018-03-25T09:46:26.164Z,15.8
2018-03-25T09:47:26.437Z,16
2018-03-25T09:48:26.215Z,16.13
2018-03-25T09:49:25.978Z,16.23
2018-03-25T09:50:26.504Z,16.31
2018-03-25T09:51:26.539Z,16.53
2018-03-25T09:52:26.303Z,16.81
2018-03-25T09:53:26.586Z,17.2
2018-03-25T09:54:26.610Z,17.36
2018-03-25T09:55:26.637Z,17.67
2018-03-25T09:56:26.659Z,17.89
2018-03-25T09:57:26.692Z,17.95
2018-03-25T09:58:26.716Z,18.23
2018-03-25T09:59:26.500Z,18.41
2018-03-25T10:00:26.759Z,18.44
2018-03-25T10:01:26.530Z,18.59
2018-03-25T10:02:26.815Z,18.75
2018-03-25T10:03:26.586Z,19.11
2018-03-25T10:04:26.874Z,19.29
2018-03-25T10:05:26.656Z,19.58
2018-03-25T10:06:26.896Z,19.59
2018-03-25T10:07:26.923Z,19.48
2018-03-25T10:08:26.950Z,19.41
2018-03-25T10:09:26.473Z,19.37
2018-03-25T10:10:27.027Z,19.54
2018-03-25T10:11:26.825Z,19.94
2018-03-25T10:12:27.094Z,20.21
2018-03-25T10:13:26.604Z,20.36
2018-03-25T10:14:26.886Z,20.44
2018-03-25T10:15:26.936Z,20.51
2018-03-25T10:16:26.693Z,20.69
2018-03-25T10:17:27.225Z,20.65
2018-03-25T10:18:27.252Z,20.55
2018-03-25T10:19:27.277Z,20.85
2018-03-25T10:20:27.312Z,20.96
2018-03-25T10:21:27.345Z,21.14
2018-03-25T10:22:27.368Z,21.33
2018-03-25T10:23:27.410Z,21.32
2018-03-25T10:24:27.171Z,21.35
2018-03-25T10:25:27.199Z,21.4
2018-03-25T10:26:27.508Z,21.58
2018-03-25T10:27:27.309Z,21.57
2018-03-25T10:28:27.036Z,21.52
2018-03-25T10:29:27.067Z,21.39
2018-03-25T10:30:27.386Z,21.29
2018-03-25T10:31:27.119Z,21.15
2018-03-25T10:32:27.419Z,21.61
2018-03-25T10:33:27.431Z,21.75
2018-03-25T10:34:27.207Z,21.95
2018-03-25T10:35:27.494Z,22.38
2018-03-25T10:36:27.517Z,22.5
2018-03-25T10:37:27.807Z,22.76
2018-03-25T10:38:27.579Z,22.96
2018-03-25T10:39:27.871Z,23
2018-03-25T10:40:27.904Z,23.18
2018-03-25T10:41:27.669Z,23.25
2018-03-25T10:42:28.001Z,23.5
2018-03-25T10:43:27.499Z,23.66
2018-03-25T10:44:27.759Z,23.73
2018-03-25T10:45:28.053Z,23.62
2018-03-25T10:46:28.080Z,23.76
2018-03-25T10:47:27.985Z,23.76
2018-03-25T10:48:27.870Z,24.03
2018-03-25T10:49:27.891Z,24.01
2018-03-25T10:50:28.176Z,23.98
2018-03-25T10:51:28.213Z,23.93
2018-03-25T10:52:27.984Z,24.01
2018-03-25T10:53:28.271Z,23.99
2018-03-25T10:54:27.797Z,24.06
2018-03-25T10:55:28.078Z,24.4
2018-03-25T10:56:28.371Z,24.61
2018-03-25T10:57:28.582Z,24.81
2018-03-25T10:58:28.444Z,24.8
2018-03-25T10:59:28.220Z,24.53
2018-03-25T11:00:28.509Z,24.3
2018-03-25T11:01:28.563Z,24.47
2018-03-25T11:02:28.567Z,24.54
2018-03-25T11:03:28.599Z,24.84
2018-03-25T11:04:28.400Z,24.98
2018-03-25T11:05:28.411Z,25.1
2018-03-25T11:06:28.700Z,25.32
2018-03-25T11:07:28.776Z,25.35
2018-03-25T11:08:28.759Z,25.38
2018-03-25T11:09:28.532Z,25.68
2018-03-25T11:10:28.569Z,25.93
2018-03-25T11:11:28.599Z,25.84
2018-03-25T11:12:28.638Z,25.66
2018-03-25T11:13:28.916Z,25.1
2018-03-25T11:14:28.436Z,25.43
2018-03-25T11:15:28.725Z,25.26
2018-03-25T11:16:29.010Z,25.66
2018-03-25T11:17:28.786Z,26.09
2018-03-25T11:18:29.077Z,26.29
2018-03-25T11:19:28.604Z,26.48
2018-03-25T11:20:29.136Z,26.15
2018-03-25T11:21:28.915Z,25.99
2018-03-25T11:22:29.317Z,25.88
2018-03-25T11:23:29.242Z,25.96
2018-03-25T11:24:29.013Z,26.21
2018-03-25T11:25:29.045Z,26.38
2018-03-25T11:26:29.339Z,26.44
2018-03-25T11:27:29.369Z,26.52
2018-03-25T11:28:29.408Z,26.6
2018-03-25T11:29:29.176Z,26.38
2018-03-25T11:30:29.209Z,26.36
2018-03-25T11:31:29.246Z,26.59
2018-03-25T11:32:29.524Z,26.95
2018-03-25T11:33:29.557Z,27.35
2018-03-25T11:34:29.344Z,27.78
2018-03-25T11:35:29.622Z,28.15
2018-03-25T11:36:29.668Z,28.26
2018-03-25T11:37:29.434Z,28.51
2018-03-25T11:38:29.734Z,28.56
2018-03-25T11:39:29.765Z,28.52
2018-03-25T11:40:29.797Z,28.48
2018-03-25T11:41:29.564Z,28.64
2018-03-25T11:42:29.855Z,28.85
2018-03-25T11:43:29.891Z,28.44
2018-03-25T11:44:29.913Z,28.26
2018-03-25T11:45:29.725Z,28.48
2018-03-25T11:46:29.985Z,28.75
2018-03-25T11:47:29.820Z,29.2
2018-03-25T11:48:29.524Z,29.41
2018-03-25T11:49:29.558Z,29.59
2018-03-25T11:50:30.095Z,29.44
2018-03-25T11:51:29.898Z,29.29
2018-03-25T11:52:30.162Z,29.14
2018-03-25T11:53:29.948Z,28.89
2018-03-25T11:54:30.274Z,29.01
2018-03-25T11:55:29.760Z,28.51
2018-03-25T11:56:30.044Z,28.39
2018-03-25T11:57:30.330Z,28.57
2018-03-25T11:58:30.112Z,28.79
2018-03-25T11:59:30.158Z,28.7
2018-03-25T12:00:30.197Z,28.39
2018-03-25T12:01:30.229Z,28.44
2018-03-25T12:02:30.522Z,28.72
2018-03-25T12:03:30.301Z,28.57
2018-03-25T12:04:30.613Z,28.79
2018-03-25T12:05:30.624Z,28.89
2018-03-25T12:06:30.398Z,29.44
2018-03-25T12:07:30.694Z,29.6
2018-03-25T12:08:30.726Z,29.81
2018-03-25T12:09:30.757Z,29.87
2018-03-25T12:10:30.790Z,30.25
2018-03-25T12:11:30.828Z,30.59
2018-03-25T12:12:30.858Z,30.83
2018-03-25T12:13:30.891Z,31.2
2018-03-25T12:14:30.672Z,31.31
2018-03-25T12:15:30.968Z,30.65
2018-03-25T12:16:30.739Z,30.32
2018-03-25T12:17:30.774Z,30.39
2018-03-25T12:18:30.602Z,30.44
2018-03-25T12:19:30.848Z,30.66
2018-03-25T12:20:31.241Z,30.62
2018-03-25T12:21:31.176Z,30.8
2018-03-25T12:22:31.202Z,30.78
2018-03-25T12:23:31.234Z,30.77
2018-03-25T12:24:31.019Z,30.62
2018-03-25T12:25:31.047Z,30.09
2018-03-25T12:26:31.081Z,29.84
2018-03-25T12:27:31.118Z,29.49
2018-03-25T12:28:31.155Z,29.61
2018-03-25T12:29:31.435Z,29.88
2018-03-25T12:30:31.220Z,30.09
2018-03-25T12:31:31.509Z,30.46
2018-03-25T12:32:31.290Z,30.44
2018-03-25T12:33:31.848Z,30.72
2018-03-25T12:34:31.357Z,31.07
2018-03-25T12:35:31.643Z,31.4
2018-03-25T12:36:31.681Z,31.62
2018-03-25T12:37:31.714Z,31.54
2018-03-25T12:38:31.753Z,30.43
2018-03-25T12:39:31.785Z,30.47
2018-03-25T12:40:31.567Z,30.8
2018-03-25T12:41:31.599Z,31.2
2018-03-25T12:42:31.641Z,31.62
2018-03-25T12:43:31.926Z,31.59
2018-03-25T12:44:31.449Z,31.36
2018-03-25T12:45:31.743Z,30.8
2018-03-25T12:46:32.034Z,30.78
2018-03-25T12:47:31.559Z,30.5
2018-03-25T12:48:32.245Z,30.46
2018-03-25T12:49:31.877Z,29.75
2018-03-25T12:50:32.170Z,29.69
2018-03-25T12:51:31.700Z,30.19
2018-03-25T12:52:32.250Z,30.35
2018-03-25T12:53:32.021Z,30.81
2018-03-25T12:54:32.333Z,31.39
2018-03-25T12:55:32.087Z,31.61
2018-03-25T12:56:32.379Z,32.19
2018-03-25T12:57:31.902Z,32.46
2018-03-25T12:58:32.085Z,32.74
2018-03-25T12:59:32.231Z,32.82
2018-03-25T13:00:32.001Z,33.05
2018-03-25T13:01:32.544Z,32.63
2018-03-25T13:02:32.073Z,32.89
2018-03-25T13:03:32.362Z,33.19
2018-03-25T13:04:32.397Z,33.53
2018-03-25T13:05:32.721Z,33.23
2018-03-25T13:06:32.728Z,33.27
2018-03-25T13:07:32.757Z,33.31
2018-03-25T13:08:32.537Z,33.14
2018-03-25T13:09:32.578Z,33.27
2018-03-25T13:10:32.353Z,33.22
2018-03-25T13:11:32.386Z,33.11